ADDS METAR Data INFO
IDs: Format: Raw Decoded Include TAF

Data at: 0313 UTC 18 Aug 2017

KASL 180255Z AUTO 00000KT 10SM 24/23 A3003 RMK AO1 T02400225
KASL 180235Z AUTO 00000KT 10SM 24/23 A3003 RMK AO1 T02400225
KASL 180215Z AUTO 00000KT 10SM 25/23 A3002 RMK AO1 T02450230
KASL 180155Z AUTO 00000KT 10SM 25/23 A3002 RMK AO1 T02460230
KASL 180135Z AUTO 00000KT 10SM 25/23 A3001 RMK AO1 T02460230
KASL 180115Z AUTO 00000KT 10SM 25/23 A3001 RMK AO1 T02520234
KASL 180055Z AUTO 00000KT 10SM 26/23 A3000 RMK AO1 T02570234
KASL 180035Z AUTO 00000KT 10SM 28/25 A3000 RMK AO1 T02800245
KASL 180015Z AUTO 00000KT 10SM 30/24 A3000 RMK AO1 T02950243
KASL 172355Z AUTO 00000KT 10SM 30/23 A2999 RMK AO1 60003 T02950227 10298 20225
KASL 172335Z AUTO 12003KT 10SM 30/22 A2999 RMK AO1 T02950216
KASL 172315Z AUTO 00000KT 10SM 30/22 A2999 RMK AO1 T02950217
KASL 172255Z AUTO 16003KT 10SM 30/21 A2999 RMK AO1 T02950211
KASL 172235Z AUTO 20004KT 10SM 30/21 A2999 RMK AO1 T02950206
KASL 172215Z AUTO 00000KT 10SM 30/21 A2999 RMK AO1 T02950207
KASL 172155Z AUTO 24006KT 10SM 30/21 A3000 RMK AO1 T02950208
KASL 172135Z AUTO 21006KT 10SM 30/22 A3001 RMK AO1 T02950219
KASL 172115Z AUTO 29003KT 10SM 30/22 A3001 RMK AO1 T02950215
KASL 172055Z AUTO 23003KT 10SM 29/22 A3001 RMK AO1 60003 T02880216
KASL 172035Z AUTO 33004KT 10SM 28/21 A3001 RMK AO1 T02790209
KASL 172015Z AUTO 24005KT 10SM 28/22 A3002 RMK AO1 T02790217
KASL 171955Z AUTO 25003KT 10SM 25/21 A3004 RMK AO1 P0001 T02460205
KASL 171935Z AUTO 23003KT 10SM 24/21 A3005 RMK AO1 P0001 T02400205
KASL 171915Z AUTO 26006KT 10SM 24/22 A3005 RMK AO1 P0001 T02400215
KASL 171855Z AUTO 28004KT 10SM 23/21 A3006 RMK AO1 P0002 T02250205
KASL 171835Z AUTO 26007KT 10SM 23/21 A3009 RMK AO1 P0002 T02250207
KASL 171815Z AUTO 24006G14KT 10SM 23/21 A3009 RMK AO1 P0001 T02250207
KASL 171755Z AUTO 25007KT 10SM 23/21 A3010 RMK AO1 P0002 60011 T02250208 10266 20211
KASL 171735Z AUTO 24004KT 10SM 23/21 A3011 RMK AO1 P0001 T02250207
KASL 171715Z AUTO 24005KT 10SM 23/21 A3012 RMK AO1 T02250206
KASL 171655Z AUTO 23004KT 10SM 23/21 A3012 RMK AO1 P0004 T02250205
KASL 171635Z AUTO 23005KT 3SM 23/21 A3013 RMK AO1 P0002 T02250205
KASL 171615Z AUTO 28004KT 10SM 24/22 A3013 RMK AO1 T02400217
KASL 171555Z AUTO 26004KT 10SM 23/21 A3013 RMK AO1 T02280206
KASL 171535Z AUTO 00000KT 10SM 23/21 A3012 RMK AO1 T02250207
KASL 171515Z AUTO 00000KT 10SM 23/21 A3011 RMK AO1 T02250211
KASL 171455Z AUTO 00000KT 10SM 22/21 A3011 RMK AO1 P0005 60005 T02190205
KASL 171435Z AUTO 02003KT 10SM 21/20 A3011 RMK AO1 P0005 T02130198
KASL 171415Z AUTO 34009G17KT 2 1/2SM 23/21 A3010 RMK AO1 VIS 1/2V5 P0004 T02250207
KASL 171355Z AUTO 35017G24KT 7SM 26/23 A3009 RMK AO1 T02610225
KASL 171335Z AUTO 25006KT 7SM 27/24 A3007 RMK AO1 T02660239
KASL 171315Z AUTO 26005KT 7SM 26/24 A3006 RMK AO1 T02610236
KASL 171255Z AUTO 22004KT 7SM 26/24 A3005 RMK AO1 T02600236
KASL 171235Z AUTO 22005KT 7SM 26/24 A3004 RMK AO1 T02560235
KASL 171215Z AUTO 22006KT 7SM 26/24 A3003 RMK AO1 T02560235
KASL 171155Z AUTO 21007KT 7SM 25/23 A3001 RMK AO1 T02530232 10256 20252
KASL 171135Z AUTO 20007KT 10SM 25/23 A3001 RMK AO1 T02520232
KASL 171115Z AUTO 20008KT 7SM 25/23 A3000 RMK AO1 T02520233
KASL 171055Z AUTO 20006KT 7SM 25/23 A3000 RMK AO1 T02520233
KASL 171035Z AUTO 19008KT 10SM 25/23 A3000 RMK AO1 T02520233
KASL 171015Z AUTO 20005KT 7SM 25/23 A3000 RMK AO1 T02520233
KASL 170955Z AUTO 20006KT 7SM 25/23 A3000 RMK AO1 T02520233
KASL 170935Z AUTO 20005KT 7SM 25/23 A3000 RMK AO1 T02520233
KASL 170915Z AUTO 20005KT 10SM 25/23 A3000 RMK AO1 T02520232
KASL 170855Z AUTO 20006KT 7SM 25/23 A3000 RMK AO1 T02520232
KASL 170835Z AUTO 20004KT 10SM 25/23 A3000 RMK AO1 T02520231
KASL 170815Z AUTO 19005KT 10SM 25/23 A3000 RMK AO1 T02520230
KASL 170755Z AUTO 19005KT 10SM 26/23 A3001 RMK AO1 T02550232
KASL 170735Z AUTO 19007KT 10SM 26/23 A3001 RMK AO1 T02560233
KASL 170715Z AUTO 19006KT 10SM 26/23 A3000 RMK AO1 T02550232
KASL 170655Z AUTO 19007KT 10SM 25/23 A3000 RMK AO1 T02530231
KASL 170635Z AUTO 19007KT 10SM 26/23 A3000 RMK AO1 T02560234
KASL 170615Z AUTO 19005KT 10SM 26/24 A3000 RMK AO1 T02560235
KASL 170555Z AUTO 18006KT 10SM 26/24 A3000 RMK AO1 T02560235 10322 20256 403360240
KASL 170535Z AUTO 17004KT 10SM 26/24 A2999 RMK AO1 T02560235
KASL 170515Z AUTO 17006KT 10SM 26/24 A2998 RMK AO1 T02570236
KASL 170455Z AUTO 17007KT 10SM 26/24 A2998 RMK AO1 T02580238
KASL 170435Z AUTO 17007KT 10SM 26/24 A2998 RMK AO1 T02600239
KASL 170415Z AUTO 17005KT 10SM 26/24 A2998 RMK AO1 T02600238
KASL 170355Z AUTO 17006KT 10SM 26/24 A2998 RMK AO1 T02600237
KASL 170335Z AUTO 16006KT 10SM 26/24 A2997 RMK AO1 T02610238
KASL 170315Z AUTO 17005KT 10SM 26/24 A2997 RMK AO1 T02630238
KASL 170255Z AUTO 17005KT 10SM 27/24 A2996 RMK AO1 T02660238
KASL 170235Z AUTO 16006KT 10SM 28/25 A2994 RMK AO1 T02800250
KASL 170215Z AUTO 16007KT 10SM 28/25 A2994 RMK AO1 T02800245
KASL 170155Z AUTO 16007KT 10SM 28/24 A2994 RMK AO1 T02800242
KASL 170135Z AUTO 16005KT 10SM 30/25 A2993 RMK AO1 T02950250
KASL 170115Z AUTO 14003KT 10SM 30/24 A2993 RMK AO1 T02950244
KASL 170055Z AUTO 15003KT 10SM 30/24 A2993 RMK AO1 T02950235
KASL 170035Z AUTO 15003KT 10SM 31/24 A2993 RMK AO1 T03080244
KASL 170015Z AUTO 00000KT 10SM 32/25 A2993 RMK AO1 T03220248
KASL 162355Z AUTO 16005KT 10SM 32/24 A2994 RMK AO1 T03220240 10336 20312
KASL 162335Z AUTO 16004KT 10SM 32/23 A2994 RMK AO1 T03220233
KASL 162315Z AUTO 18005KT 10SM 32/23 A2994 RMK AO1 T03240225
KASL 162255Z AUTO 17007KT 10SM 33/24 A2994 RMK AO1 T03300235
KASL 162235Z AUTO 18005KT 10SM 33/23 A2995 RMK AO1 T03310232
KASL 162215Z AUTO 18007KT 10SM 33/24 A2995 RMK AO1 T03340236
KASL 162155Z AUTO 20008KT 10SM 34/22 A2995 RMK AO1 T03360223
KASL 162135Z AUTO 22009KT 10SM 34/22 A2995 RMK AO1 T03360224
KASL 162115Z AUTO 22010KT 10SM 33/24 A2996 RMK AO1 T03340241
KASL 162055Z AUTO 16003KT 10SM 33/25 A2996 RMK AO1 T03310246
KASL 162035Z AUTO 21010KT 10SM 33/24 A2996 RMK AO1 T03310235
KASL 162015Z AUTO 21006KT 10SM 32/23 A2996 RMK AO1 T03230232
KASL 161955Z AUTO 20005KT 10SM 33/24 A2997 RMK AO1 T03330238
KASL 161935Z AUTO 24005KT 10SM 32/24 A2997 RMK AO1 T03220238
KASL 161915Z AUTO 22006KT 10SM 32/24 A2997 RMK AO1 T03220239
KASL 161855Z AUTO 21006KT 10SM 33/23 A2998 RMK AO1 T03290231
KASL 161835Z AUTO 21008KT 10SM 32/23 A2998 RMK AO1 T03220233
KASL 161815Z AUTO 23007KT 10SM 32/24 A2999 RMK AO1 T03220237
KASL 161755Z AUTO 23006G14KT 10SM 31/24 A2999 RMK AO1 T03130239 10322 20240
KASL 161735Z AUTO 21009KT 10SM 31/23 A3000 RMK AO1 T03080233
KASL 161715Z AUTO 20006G14KT 10SM 31/24 A3001 RMK AO1 T03080237
KASL 161655Z AUTO 19008KT 10SM 30/24 A3002 RMK AO1 T03040241
KASL 161635Z AUTO 21005KT 10SM 30/24 A3002 RMK AO1 T02990238
KASL 161615Z AUTO 22006KT 10SM 30/25 A3003 RMK AO1 T02950246
KASL 161555Z AUTO 22009KT 10SM 30/25 A3003 RMK AO1 T02950245
KASL 161535Z AUTO 21010KT 10SM 30/24 A3003 RMK AO1 T02950242
KASL 161515Z AUTO 21011G17KT 10SM 30/25 A3003 RMK AO1 T02950246